Time;durP1;ratioP1;P1;durP2;ratioP2;P2;SDS_P1;SDS_P2;PMS_P1;PMS_P2;Temp;Humidity;BMP_temperature;BMP_pressure;BME280_temperature;BME280_humidity;BME280_pressure;Samples;Min_cycle;Max_cycle;Signal;HPM_P1;HPM_P2
2022/08/24 00:00:33;;;;;;;1.50;1.33;;;19.50;69.70;20.00;96699.00;;;;5072568;28;20230;-82
2022/08/24 00:03:10;;;;;;;2.50;1.70;;;19.50;69.70;20.00;96692.00;;;;5072167;28;20215;-82
2022/08/24 00:05:43;;;;;;;1.20;1.20;;;19.50;69.60;19.90;96698.00;;;;5072257;28;20542;-81
2022/08/24 00:08:14;;;;;;;1.97;1.67;;;19.50;69.70;19.90;96701.00;;;;5072790;28;20249;-82
2022/08/24 00:10:47;;;;;;;1.60;1.50;;;19.50;69.70;19.90;96692.00;;;;5072507;28;20227;-82
2022/08/24 00:13:23;;;;;;;1.13;1.13;;;19.40;69.70;19.90;96690.00;;;;5072208;28;20192;-81
2022/08/24 00:15:55;;;;;;;2.00;1.70;;;19.40;69.70;19.90;96689.00;;;;5071868;28;20196;-82
2022/08/24 00:18:32;;;;;;;1.37;1.20;;;19.40;69.80;19.90;96693.00;;;;5071780;28;20188;-82
2022/08/24 00:21:08;;;;;;;1.27;1.17;;;19.40;70.00;19.80;96689.00;;;;5072179;28;20261;-82
2022/08/24 00:23:43;;;;;;;2.43;1.50;;;19.40;70.10;19.80;96685.00;;;;5072155;28;20651;-81
2022/08/24 00:26:18;;;;;;;2.70;1.30;;;19.40;70.20;19.80;96689.00;;;;5070913;28;20206;-81
2022/08/24 00:28:50;;;;;;;1.80;1.70;;;19.30;70.20;19.80;96686.00;;;;5072145;28;20616;-82
2022/08/24 00:31:24;;;;;;;1.40;1.30;;;19.30;70.10;19.70;96689.00;;;;5071663;28;20254;-82
2022/08/24 00:33:58;;;;;;;1.83;1.73;;;19.30;70.10;19.70;96691.00;;;;5071585;28;20191;-82
2022/08/24 00:36:32;;;;;;;2.20;1.60;;;19.20;70.10;19.60;96694.00;;;;5070971;28;20286;-82
2022/08/24 00:39:04;;;;;;;3.83;1.60;;;19.20;70.10;19.60;96688.00;;;;5071745;28;20214;-82
2022/08/24 00:41:47;;;;;;;1.50;1.40;;;19.20;70.20;19.50;96697.00;;;;5071681;28;20284;-82
2022/08/24 00:44:23;;;;;;;1.40;1.30;;;19.20;70.30;19.50;96684.00;;;;5071712;28;20960;-81
2022/08/24 00:47:03;;;;;;;1.33;1.23;;;19.10;70.20;19.50;96687.00;;;;5070691;28;20676;-82
2022/08/24 00:50:03;;;;;;;1.40;1.30;;;19.10;70.30;19.40;96685.00;;;;5128964;27;20530;-83
2022/08/24 00:52:50;;;;;;;1.50;1.40;;;19.10;70.70;19.40;96698.00;;;;5108203;28;20297;-83
2022/08/24 00:55:26;;;;;;;1.40;1.33;;;19.00;70.50;19.40;96702.00;;;;5108320;28;20194;-83
2022/08/24 00:58:07;;;;;;;1.80;1.43;;;19.00;70.40;19.30;96693.00;;;;5108528;28;20190;-83
2022/08/24 01:00:45;;;;;;;1.90;1.80;;;19.00;70.60;19.30;96703.00;;;;5108785;28;20215;-83
2022/08/24 01:03:22;;;;;;;1.37;1.30;;;18.90;70.60;19.20;96694.00;;;;5108542;28;20202;-83
2022/08/24 01:05:59;;;;;;;1.60;1.50;;;18.90;70.50;19.20;96697.00;;;;5108043;28;20209;-83
2022/08/24 01:08:34;;;;;;;1.63;1.47;;;18.90;70.70;19.20;96698.00;;;;5108003;28;20275;-83
2022/08/24 01:11:25;;;;;;;1.60;1.50;;;18.80;70.60;19.20;96692.00;;;;5108508;28;20564;-83
2022/08/24 01:13:58;;;;;;;2.40;1.70;;;18.80;71.10;19.10;96690.00;;;;5099249;28;20203;-83
2022/08/24 01:19:33;;;;;;;1.50;1.40;;;18.70;71.10;19.10;96693.00;;;;5107422;28;20221;-84
2022/08/24 01:22:30;;;;;;;1.67;1.57;;;18.70;71.30;19.10;96695.00;;;;5107428;28;20194;-83
2022/08/24 01:25:08;;;;;;;2.13;1.67;;;18.70;71.70;19.10;96681.00;;;;5105557;28;20285;-84
2022/08/24 01:27:42;;;;;;;1.60;1.50;;;18.70;71.50;19.00;96687.00;;;;5106848;28;20714;-82
2022/08/24 01:30:19;;;;;;;1.53;1.43;;;18.60;71.40;19.00;96685.00;;;;5108206;28;20702;-83
2022/08/24 01:33:01;;;;;;;1.40;1.30;;;18.60;71.60;19.00;96682.00;;;;5095778;28;20203;-83
2022/08/24 01:35:38;;;;;;;3.10;1.70;;;18.60;71.70;19.00;96687.00;;;;5087409;28;20195;-84
2022/08/24 01:38:16;;;;;;;1.50;1.40;;;18.60;71.70;19.00;96682.00;;;;5087745;28;20191;-83
2022/08/24 01:41:00;;;;;;;1.77;1.60;;;18.60;72.00;19.00;96680.00;;;;5092881;28;20226;-83
2022/08/24 01:43:37;;;;;;;1.70;1.40;;;18.60;72.20;18.90;96681.00;;;;5107449;28;20213;-83
2022/08/24 01:46:11;;;;;;;1.63;1.53;;;18.60;72.10;18.90;96679.00;;;;5106887;28;20271;-82
2022/08/24 01:48:45;;;;;;;1.57;1.47;;;18.60;72.20;18.90;96666.00;;;;5107293;28;20569;-83
2022/08/24 01:51:16;;;;;;;1.60;1.50;;;18.50;72.30;18.90;96674.00;;;;5107189;28;20863;-83
2022/08/24 01:53:48;;;;;;;1.37;1.37;;;18.50;72.40;18.90;96671.00;;;;5107338;28;20202;-82
2022/08/24 01:58:59;;;;;;;1.77;1.67;;;18.80;72.80;18.90;96670.00;;;;5090414;28;20226;-82
2022/08/24 02:01:35;;;;;;;1.53;1.43;;;18.50;72.60;18.90;96681.00;;;;5096539;28;20203;-82
2022/08/24 02:04:08;;;;;;;1.43;1.30;;;18.50;72.80;18.90;96674.00;;;;5096203;28;20191;-82
2022/08/24 02:06:43;;;;;;;1.53;1.43;;;18.50;72.90;18.90;96673.00;;;;5096381;28;20282;-83
2022/08/24 02:09:15;;;;;;;1.47;1.47;;;18.50;72.90;18.90;96678.00;;;;5095524;28;20226;-83
2022/08/24 02:11:53;;;;;;;2.20;2.00;;;18.50;73.20;18.90;96673.00;;;;5095044;28;20195;-83
2022/08/24 02:14:25;;;;;;;1.60;1.50;;;18.50;73.40;18.90;96675.00;;;;5095759;28;20293;-83
2022/08/24 02:17:03;;;;;;;2.07;1.70;;;18.50;73.30;18.90;96676.00;;;;5096148;28;20191;-83
2022/08/24 02:19:36;;;;;;;1.70;1.47;;;18.50;73.20;18.90;96676.00;;;;5095568;28;20219;-83
2022/08/24 02:22:15;;;;;;;1.70;1.57;;;18.50;73.30;18.90;96686.00;;;;5097364;28;20224;-82
2022/08/24 02:24:50;;;;;;;1.87;1.43;;;18.50;73.50;18.90;96674.00;;;;5097695;28;20199;-83
2022/08/24 02:27:25;;;;;;;1.77;1.67;;;18.50;73.50;18.90;96680.00;;;;5097227;28;20670;-82
2022/08/24 02:29:56;;;;;;;1.97;1.60;;;18.50;73.50;18.90;96686.00;;;;5096810;28;20565;-83
2022/08/24 02:32:28;;;;;;;1.30;1.30;;;18.50;73.40;18.90;96691.00;;;;5096631;28;20233;-82
2022/08/24 02:35:02;;;;;;;2.07;1.57;;;18.50;73.30;18.90;96690.00;;;;5096906;28;20252;-82
2022/08/24 02:37:32;;;;;;;1.90;1.80;;;18.50;73.10;18.90;96683.00;;;;5097478;28;20199;-82
2022/08/24 02:40:13;;;;;;;2.80;1.67;;;18.50;73.20;18.90;96688.00;;;;5095986;28;20227;-82
2022/08/24 02:42:44;;;;;;;2.17;1.70;;;18.50;73.40;18.80;96693.00;;;;5097078;28;20647;-81
2022/08/24 02:45:15;;;;;;;1.63;1.53;;;18.50;73.20;18.80;96694.00;;;;5096336;28;20195;-84
2022/08/24 02:47:52;;;;;;;1.40;1.30;;;18.40;73.10;18.80;96685.00;;;;5093613;28;20202;-83
2022/08/24 02:50:21;;;;;;;1.57;1.47;;;18.40;73.00;18.80;96690.00;;;;5093626;28;20223;-84
2022/08/24 02:52:56;;;;;;;1.57;1.47;;;18.40;72.90;18.70;96685.00;;;;5094769;28;20241;-81
2022/08/24 02:55:24;;;;;;;1.47;1.40;;;18.30;72.80;18.70;96691.00;;;;5096282;28;20199;-82
2022/08/24 02:58:00;;;;;;;1.57;1.47;;;18.40;72.70;18.70;96687.00;;;;5096010;28;20211;-81
2022/08/24 03:00:31;;;;;;;1.87;1.77;;;18.30;72.80;18.60;96685.00;;;;5096200;28;20640;-82
2022/08/24 03:03:02;;;;;;;1.80;1.70;;;18.30;72.80;18.60;96685.00;;;;5096691;28;20298;-82
2022/08/24 03:05:33;;;;;;;1.40;1.30;;;18.30;72.80;18.60;96688.00;;;;5096017;28;20207;-82
2022/08/24 03:08:02;;;;;;;1.57;1.47;;;18.30;72.70;18.50;96685.00;;;;5096503;28;20230;-82
2022/08/24 03:10:32;;;;;;;2.23;1.67;;;18.20;72.60;18.50;96686.00;;;;5096316;28;20276;-82
2022/08/24 03:13:09;;;;;;;2.83;1.40;;;18.20;72.60;18.50;96680.00;;;;5095305;28;20675;-80
2022/08/24 03:15:45;;;;;;;1.23;1.20;;;18.20;72.70;18.50;96686.00;;;;5096041;28;20206;-81
2022/08/24 03:18:18;;;;;;;2.00;1.53;;;18.20;72.70;18.40;96685.00;;;;5095892;28;20202;-82
2022/08/24 03:20:45;;;;;;;3.70;1.67;;;18.10;72.60;18.40;96679.00;;;;5095591;28;20250;-82
2022/08/24 03:23:18;;;;;;;1.40;1.30;;;18.10;72.60;18.40;96679.00;;;;5095945;28;20245;-82
2022/08/24 03:25:48;;;;;;;1.60;1.50;;;18.10;72.70;18.40;96684.00;;;;5091233;28;20207;-81
2022/08/24 03:28:27;;;;;;;1.80;1.70;;;18.00;72.90;18.40;96685.00;;;;5087320;28;20192;-82
2022/08/24 03:31:00;;;;;;;1.77;1.57;;;18.00;73.60;18.40;96679.00;;;;5075558;28;20195;-84
2022/08/24 03:33:30;;;;;;;2.27;1.70;;;18.00;73.50;18.40;96678.00;;;;5092490;28;20234;-84
2022/08/24 03:36:01;;;;;;;1.57;1.47;;;18.00;73.40;18.40;96682.00;;;;5096053;28;20683;-84
2022/08/24 03:38:33;;;;;;;2.13;1.43;;;18.00;73.50;18.40;96680.00;;;;5095761;28;20694;-84
2022/08/24 03:41:04;;;;;;;2.00;1.70;;;18.00;73.40;18.40;96685.00;;;;5095864;28;20685;-84
2022/08/24 03:43:48;;;;;;;2.83;2.10;;;17.90;73.30;18.40;96691.00;;;;5096002;28;20203;-83
2022/08/24 03:46:26;;;;;;;2.07;1.73;;;18.00;73.50;18.30;96690.00;;;;5095836;28;20248;-81
2022/08/24 03:49:03;;;;;;;1.73;1.63;;;17.90;73.40;18.30;96686.00;;;;5096265;28;20219;-82
2022/08/24 03:51:34;;;;;;;1.80;1.63;;;17.90;73.30;18.30;96689.00;;;;5096240;28;20229;-82
2022/08/24 03:54:05;;;;;;;1.77;1.67;;;17.90;73.40;18.30;96693.00;;;;5095645;28;20248;-82
2022/08/24 03:56:36;;;;;;;1.97;1.83;;;17.90;73.30;18.20;96693.00;;;;5095774;28;20800;-81
2022/08/24 03:59:09;;;;;;;2.37;2.20;;;17.90;73.30;18.20;96687.00;;;;5095345;28;20215;-82
2022/08/24 04:01:42;;;;;;;3.57;2.20;;;17.90;73.60;18.20;96694.00;;;;5088541;28;20288;-82
2022/08/24 04:04:10;;;;;;;3.37;2.27;;;17.80;73.60;18.20;96692.00;;;;5080909;28;20274;-81
2022/08/24 04:06:47;;;;;;;2.40;2.20;;;17.80;73.70;18.20;96691.00;;;;5095206;28;20207;-81
2022/08/24 04:09:18;;;;;;;2.37;2.17;;;17.80;74.00;18.20;96690.00;;;;5094078;28;20288;-82
2022/08/24 04:11:45;;;;;;;2.90;2.70;;;17.80;73.90;18.20;96693.00;;;;5093258;28;20207;-81
2022/08/24 04:14:18;;;;;;;2.43;2.30;;;17.80;73.90;18.20;96696.00;;;;5092742;28;20199;-82
2022/08/24 04:16:45;;;;;;;2.83;2.63;;;17.80;73.90;18.20;96696.00;;;;5081990;28;20198;-82
2022/08/24 04:19:17;;;;;;;2.40;2.20;;;17.80;73.90;18.20;96696.00;;;;5072911;28;20220;-82
2022/08/24 04:21:47;;;;;;;2.57;2.20;;;17.80;74.00;18.20;96692.00;;;;5073571;28;20204;-82
2022/08/24 04:24:20;;;;;;;2.30;2.20;;;17.80;74.10;18.10;96689.00;;;;5073185;28;20196;-82
2022/08/24 04:26:53;;;;;;;2.83;2.50;;;17.80;74.20;18.10;96700.00;;;;5073469;28;20253;-82
2022/08/24 04:29:27;;;;;;;2.60;2.40;;;17.80;74.10;18.10;96701.00;;;;5073019;28;20219;-82
2022/08/24 04:32:00;;;;;;;2.40;2.20;;;17.80;74.40;18.10;96702.00;;;;5078500;28;20203;-82
2022/08/24 04:34:32;;;;;;;2.50;2.30;;;17.80;74.50;18.10;96698.00;;;;5094204;28;20203;-82
2022/08/24 04:37:00;;;;;;;2.67;2.23;;;17.80;74.60;18.20;96700.00;;;;5092348;28;20203;-81
2022/08/24 04:39:33;;;;;;;2.30;2.20;;;17.80;74.70;18.20;96696.00;;;;5092512;28;20268;-82
2022/08/24 04:42:02;;;;;;;2.43;2.30;;;17.80;74.80;18.20;96698.00;;;;5092958;28;20199;-82
2022/08/24 04:44:36;;;;;;;2.20;2.10;;;17.80;74.80;18.20;96700.00;;;;5092344;28;20209;-82
2022/08/24 04:47:04;;;;;;;2.20;2.00;;;17.80;75.10;18.20;96704.00;;;;5093334;28;20241;-83
2022/08/24 04:49:33;;;;;;;2.17;2.07;;;17.80;75.10;18.20;96701.00;;;;5083733;28;20223;-83
2022/08/24 04:52:06;;;;;;;3.03;2.40;;;17.80;75.10;18.20;96716.00;;;;5073555;28;20203;-83
2022/08/24 04:54:37;;;;;;;3.10;2.23;;;17.80;75.10;18.20;96713.00;;;;5073072;28;20200;-83
2022/08/24 04:57:05;;;;;;;2.57;2.37;;;17.80;75.00;18.20;96709.00;;;;5073296;28;20216;-81
2022/08/24 04:59:37;;;;;;;2.67;2.17;;;17.80;75.10;18.20;96714.00;;;;5073473;28;20345;-82
2022/08/24 05:02:08;;;;;;;2.40;2.20;;;17.80;75.20;18.20;96711.00;;;;5079648;28;20239;-83
2022/08/24 05:04:38;;;;;;;1.97;1.87;;;17.80;75.20;18.20;96724.00;;;;5093361;28;20195;-82
2022/08/24 05:07:10;;;;;;;2.43;2.23;;;17.80;75.40;18.20;96733.00;;;;5093474;28;20199;-83
2022/08/24 05:09:39;;;;;;;2.10;2.00;;;17.80;75.40;18.20;96729.00;;;;5093326;28;20230;-82
2022/08/24 05:12:12;;;;;;;2.63;2.43;;;17.80;75.40;18.30;96732.00;;;;5094580;28;20264;-82
2022/08/24 05:14:47;;;;;;;2.10;2.00;;;17.80;75.40;18.30;96742.00;;;;5093660;28;20210;-81
2022/08/24 05:17:18;;;;;;;2.50;2.30;;;17.90;75.60;18.30;96741.00;;;;5094664;28;20198;-82
2022/08/24 05:19:49;;;;;;;2.10;2.00;;;17.90;75.50;18.30;96743.00;;;;5093674;28;20222;-81
2022/08/24 05:22:25;;;;;;;4.07;2.77;;;17.90;75.70;18.30;96746.00;;;;5093655;28;20199;-82
2022/08/24 05:24:58;;;;;;;2.77;2.57;;;17.90;75.80;18.30;96741.00;;;;5093476;28;20725;-82
2022/08/24 05:27:28;;;;;;;2.80;2.60;;;17.90;76.10;18.40;96751.00;;;;5093628;28;20230;-81
2022/08/24 05:30:08;;;;;;;2.77;2.57;;;18.00;76.30;18.40;96753.00;;;;5093396;28;20584;-82
2022/08/24 05:32:37;;;;;;;2.60;2.40;;;18.00;76.70;18.40;96747.00;;;;5093535;28;20207;-81
2022/08/24 05:35:11;;;;;;;3.43;3.00;;;18.00;76.80;18.50;96747.00;;;;5095258;28;20195;-81
2022/08/24 05:37:43;;;;;;;3.03;2.83;;;18.00;77.10;18.50;96755.00;;;;5097600;28;20199;-81
2022/08/24 05:40:18;;;;;;;2.97;2.73;;;18.10;77.50;18.60;96749.00;;;;5098242;28;20578;-81
2022/08/24 05:42:48;;;;;;;3.50;3.30;;;18.10;77.90;18.60;96749.00;;;;5097259;28;20645;-80
2022/08/24 05:45:25;;;;;;;3.27;3.07;;;18.10;77.90;18.70;96752.00;;;;5097733;28;20571;-81
2022/08/24 05:47:52;;;;;;;3.53;3.33;;;18.20;78.10;18.80;96757.00;;;;5096830;28;20203;-80
2022/08/24 05:50:24;;;;;;;3.30;2.97;;;18.20;78.10;18.80;96765.00;;;;5097143;28;20277;-81
2022/08/24 05:52:53;;;;;;;3.63;3.33;;;18.30;78.40;18.90;96767.00;;;;5097686;28;20868;-81
2022/08/24 05:55:20;;;;;;;3.10;2.90;;;18.30;78.50;18.90;96760.00;;;;5097347;28;20391;-82
2022/08/24 05:57:49;;;;;;;2.53;2.43;;;18.40;78.60;19.00;96763.00;;;;5097431;28;20211;-81
2022/08/24 06:00:23;;;;;;;3.07;2.87;;;18.50;78.80;19.00;96769.00;;;;5096618;28;20223;-81
2022/08/24 06:02:51;;;;;;;2.87;2.67;;;18.50;79.00;19.10;96773.00;;;;5096997;28;20207;-81
2022/08/24 06:05:27;;;;;;;3.33;3.00;;;18.60;79.00;19.20;96770.00;;;;5096783;28;20623;-80
2022/08/24 06:07:55;;;;;;;3.83;3.03;;;18.60;79.10;19.20;96774.00;;;;5097563;28;20547;-79
2022/08/24 06:10:25;;;;;;;2.83;2.67;;;18.70;79.30;19.30;96773.00;;;;5096995;28;20259;-80
2022/08/24 06:12:54;;;;;;;3.07;2.87;;;18.70;79.30;19.40;96772.00;;;;5097308;28;20290;-81
2022/08/24 06:15:26;;;;;;;3.77;3.07;;;18.80;79.40;19.40;96770.00;;;;5096499;28;20235;-81
2022/08/24 06:17:56;;;;;;;2.60;2.40;;;18.90;79.60;19.50;96764.00;;;;5096141;28;20195;-81
2022/08/24 06:20:24;;;;;;;2.90;2.70;;;18.90;79.80;19.60;96768.00;;;;5096982;28;20738;-81
2022/08/24 06:22:52;;;;;;;2.80;2.57;;;18.90;79.80;19.60;96764.00;;;;5097188;28;20249;-81
2022/08/24 06:28:06;;;;;;;2.70;2.50;;;19.10;80.30;19.80;96773.00;;;;5097589;28;20198;-80
2022/08/24 06:30:36;;;;;;;2.83;2.60;;;19.20;80.40;19.90;96768.00;;;;5097110;28;20227;-80
2022/08/24 06:33:12;;;;;;;2.90;2.70;;;19.20;80.70;19.90;96770.00;;;;5096892;28;20222;-80
2022/08/24 06:35:44;;;;;;;2.97;2.77;;;19.30;80.80;20.00;96771.00;;;;5096987;28;20233;-81
2022/08/24 06:38:11;;;;;;;2.97;2.77;;;19.40;80.70;20.10;96765.00;;;;5096563;28;20203;-81
2022/08/24 06:40:41;;;;;;;3.07;2.87;;;19.50;80.80;20.20;96767.00;;;;5097690;28;20215;-81
2022/08/24 06:43:11;;;;;;;3.40;3.10;;;19.50;81.00;20.20;96779.00;;;;5098674;28;20229;-80
2022/08/24 06:45:41;;;;;;;3.10;2.90;;;19.60;81.00;20.30;96771.00;;;;5097295;28;20195;-81
2022/08/24 06:48:08;;;;;;;3.20;3.00;;;19.70;81.30;20.40;96772.00;;;;5097149;28;20237;-80
2022/08/24 06:50:36;;;;;;;3.37;3.07;;;19.80;81.30;20.50;96779.00;;;;5096323;28;20276;-79
2022/08/24 06:53:06;;;;;;;3.07;2.87;;;19.90;81.40;20.60;96785.00;;;;5097181;28;20231;-79
2022/08/24 06:55:38;;;;;;;3.13;2.93;;;20.00;81.60;20.70;96782.00;;;;5096264;28;20227;-79
2022/08/24 06:58:09;;;;;;;3.20;2.83;;;20.00;81.60;20.80;96782.00;;;;5096338;28;20210;-80
2022/08/24 07:00:39;;;;;;;2.80;2.60;;;20.20;81.50;20.80;96786.00;;;;5095010;28;20748;-80
2022/08/24 07:03:08;;;;;;;3.03;2.83;;;20.20;81.50;20.90;96791.00;;;;5097010;28;20200;-80
2022/08/24 07:05:51;;;;;;;3.00;2.80;;;20.30;81.40;21.00;96789.00;;;;5095884;28;20199;-81
2022/08/24 07:08:25;;;;;;;2.73;2.53;;;20.40;81.40;21.10;96789.00;;;;5096344;28;20257;-80
2022/08/24 07:10:55;;;;;;;3.20;3.00;;;20.50;81.30;21.20;96793.00;;;;5095540;28;20968;-82
2022/08/24 07:13:22;;;;;;;3.00;2.80;;;20.60;81.30;21.30;96795.00;;;;5096674;28;20230;-80
2022/08/24 07:15:59;;;;;;;3.00;2.80;;;20.70;81.30;21.50;96792.00;;;;5096532;28;20725;-81
2022/08/24 07:18:27;;;;;;;3.17;2.80;;;20.80;81.30;21.60;96797.00;;;;5096407;28;20234;-81
2022/08/24 07:20:58;;;;;;;3.57;3.37;;;20.90;81.30;21.80;96791.00;;;;5096567;28;20212;-81
2022/08/24 07:23:36;;;;;;;3.20;3.00;;;21.00;81.10;22.00;96793.00;;;;5096425;28;20294;-81
2022/08/24 07:26:17;;;;;;;3.07;2.87;;;21.20;81.00;22.20;96802.00;;;;5095334;28;20198;-81
2022/08/24 07:28:48;;;;;;;2.60;2.40;;;21.30;81.10;22.40;96795.00;;;;5096279;28;20656;-80
2022/08/24 07:31:28;;;;;;;2.83;2.53;;;21.50;80.90;22.60;96798.00;;;;5094799;28;20219;-81
2022/08/24 07:33:55;;;;;;;2.50;2.40;;;21.70;80.70;22.80;96801.00;;;;5096071;28;20904;-81
2022/08/24 07:36:30;;;;;;;3.00;2.40;;;21.80;80.40;23.00;96799.00;;;;5096031;28;20234;-81
2022/08/24 07:38:59;;;;;;;2.87;2.43;;;22.00;80.20;23.10;96788.00;;;;5096131;28;20302;-81
2022/08/24 07:41:32;;;;;;;3.00;2.80;;;22.10;79.90;23.30;96795.00;;;;5094288;28;20211;-81
2022/08/24 07:43:59;;;;;;;2.80;2.60;;;22.30;79.70;23.50;96794.00;;;;5085234;28;20651;-81
2022/08/24 07:46:31;;;;;;;2.73;2.57;;;22.50;79.40;23.60;96796.00;;;;5098391;28;20188;-81
2022/08/24 07:48:58;;;;;;;3.00;2.80;;;22.60;79.20;23.80;96796.00;;;;5095522;28;20706;-80
2022/08/24 07:51:28;;;;;;;3.27;3.07;;;22.70;78.80;23.90;96791.00;;;;5095094;28;20223;-81
2022/08/24 07:53:58;;;;;;;2.97;2.80;;;22.90;78.70;24.10;96791.00;;;;5078845;28;20266;-81
2022/08/24 07:56:30;;;;;;;2.53;2.33;;;23.00;78.10;24.20;96797.00;;;;5078219;28;20199;-81
2022/08/24 07:59:02;;;;;;;2.80;2.60;;;23.20;77.90;24.40;96798.00;;;;5089655;28;20311;-81
2022/08/24 08:01:38;;;;;;;2.47;2.27;;;23.30;77.50;24.50;96795.00;;;;5079103;28;20192;-81
2022/08/24 08:04:13;;;;;;;2.30;2.10;;;23.40;77.20;24.70;96798.00;;;;5094124;28;20564;-81
2022/08/24 08:06:41;;;;;;;2.53;2.43;;;23.60;77.00;24.80;96800.00;;;;5115533;22;20243;-86
2022/08/24 08:09:09;;;;;;;2.63;2.53;;;23.70;77.50;24.90;96800.00;;;;5093925;28;20226;-85
2022/08/24 08:11:36;;;;;;;2.60;2.40;;;23.80;76.10;25.10;96793.00;;;;5094561;28;20260;-86
2022/08/24 08:14:03;;;;;;;2.77;2.57;;;24.00;75.90;25.20;96796.00;;;;5094331;28;20225;-85
2022/08/24 08:16:32;;;;;;;3.20;3.00;;;24.10;75.60;25.30;96791.00;;;;5093217;28;20584;-86
2022/08/24 08:19:02;;;;;;;2.10;2.00;;;24.20;75.20;25.40;96794.00;;;;5109312;22;20229;-86
2022/08/24 08:24:21;;;;;;;2.30;2.20;;;24.50;74.80;25.70;96792.00;;;;5093481;28;20198;-87
2022/08/24 08:26:56;;;;;;;2.57;2.07;;;24.60;74.20;25.90;96797.00;;;;5080748;28;20206;-87
2022/08/24 08:29:34;;;;;;;2.50;2.20;;;24.70;73.90;26.00;96795.00;;;;5089714;28;20244;-87
2022/08/24 08:32:10;;;;;;;2.23;2.13;;;24.90;74.00;26.20;96804.00;;;;5077848;28;20196;-87
2022/08/24 08:34:49;;;;;;;1.87;1.77;;;25.10;73.60;26.40;96797.00;;;;5060063;28;20204;-87
2022/08/24 08:37:23;;;;;;;1.77;1.67;;;25.20;72.60;26.50;96802.00;;;;5077474;28;20252;-87
2022/08/24 08:39:54;;;;;;;1.70;1.60;;;25.30;73.00;26.70;96798.00;;;;5081378;28;20211;-87
2022/08/24 08:43:07;;;;;;;2.07;1.97;;;25.40;72.50;26.90;96803.00;;;;5081537;28;20648;-87
2022/08/24 08:46:09;;;;;;;1.87;1.77;;;25.60;70.10;27.10;96806.00;;;;5068255;28;20199;-87
2022/08/24 08:49:12;;;;;;;1.67;1.57;;;25.80;71.30;27.30;96805.00;;;;5078806;28;20637;-87
2022/08/24 08:52:36;;;;;;;1.77;1.67;;;26.00;71.00;27.50;96800.00;;;;5065399;28;20221;-87
2022/08/24 08:55:26;;;;;;;1.63;1.53;;;26.20;70.50;27.70;96813.00;;;;5074962;28;20199;-88
2022/08/24 08:58:10;;;;;;;1.53;1.43;;;26.30;70.80;27.90;96804.00;;;;5081216;28;20188;-87
2022/08/24 09:01:08;;;;;;;1.60;1.50;;;26.50;70.00;28.10;96805.00;;;;5078513;28;20304;-87
2022/08/24 09:04:14;;;;;;;1.73;1.63;;;26.70;69.10;28.30;96800.00;;;;5072224;28;20282;-86
2022/08/24 09:07:32;;;;;;;1.53;1.43;;;26.90;68.80;28.50;96816.00;;;;5063869;28;20592;-86
2022/08/24 09:10:50;;;;;;;1.47;1.37;;;27.10;67.90;28.70;96810.00;;;;5053756;28;20592;-87
2022/08/24 09:13:45;;;;;;;1.67;1.57;;;27.20;67.30;28.90;96809.00;;;;5056438;28;20201;-87
2022/08/24 09:16:42;;;;;;;2.40;1.33;;;27.40;67.30;29.10;96812.00;;;;5078849;28;20288;-87
2022/08/24 09:19:34;;;;;;;3.20;1.50;;;27.60;67.30;29.30;96815.00;;;;5092567;28;20267;-87
2022/08/24 09:22:14;;;;;;;1.20;1.20;;;27.80;66.10;29.50;96807.00;;;;5086749;28;20188;-86
2022/08/24 09:25:20;;;;;;;1.50;1.40;;;28.00;66.20;29.70;96813.00;;;;5096311;28;20198;-86
2022/08/24 09:28:17;;;;;;;1.45;1.35;;;28.10;64.80;29.80;96810.00;;;;5094499;28;20202;-87
2022/08/24 09:31:45;;;;;;;1.85;1.10;;;28.30;64.90;30.00;96815.00;;;;5075204;28;20684;-87
2022/08/24 09:34:42;;;;;;;1.23;1.13;;;28.40;64.10;30.10;96810.00;;;;5046353;28;20603;-87
2022/08/24 09:37:34;;;;;;;1.30;1.30;;;28.60;64.30;30.20;96812.00;;;;5056168;28;20185;-87
2022/08/24 09:40:27;;;;;;;1.20;1.13;;;28.70;63.20;30.40;96805.00;;;;5090500;28;20652;-88
2022/08/24 09:43:42;;;;;;;1.08;1.08;;;28.90;64.00;30.50;96808.00;;;;5092202;28;20703;-87
2022/08/24 09:47:03;;;;;;;3.55;1.13;;;29.00;62.80;30.70;96804.00;;;;5063512;28;20196;-87
2022/08/24 09:50:42;;;;;;;0.90;0.90;;;29.20;61.50;30.80;96808.00;;;;5070786;28;20215;-88
2022/08/24 09:53:53;;;;;;;1.13;1.00;;;29.30;60.50;31.00;96807.00;;;;5004661;28;20625;-87
2022/08/24 09:56:51;;;;;;;1.10;1.10;;;29.50;60.40;31.20;96797.00;;;;5054044;28;20261;-85
2022/08/24 10:00:12;;;;;;;1.20;1.10;;;29.60;60.00;31.20;96805.00;;;;5053872;28;20228;-85
2022/08/24 10:03:27;;;;;;;0.98;0.98;;;29.80;59.30;31.40;96807.00;;;;5053918;28;20324;-84
2022/08/24 10:06:30;;;;;;;0.90;0.90;;;29.90;59.40;31.60;96806.00;;;;5069791;28;20200;-84
2022/08/24 10:09:38;;;;;;;1.05;0.98;;;30.00;59.10;31.60;96799.00;;;;5035984;28;20612;-84
2022/08/24 10:12:22;;;;;;;0.90;0.90;;;30.10;58.00;31.60;96800.00;;;;5061880;28;20238;-84
2022/08/24 10:15:01;;;;;;;1.15;1.08;;;30.20;57.90;31.50;96802.00;;;;5071899;28;20227;-84
2022/08/24 10:17:42;;;;;;;1.20;1.10;;;30.20;57.40;31.40;96802.00;;;;5074750;28;20200;-85
2022/08/24 10:20:29;;;;;;;0.95;0.95;;;30.20;56.70;31.30;96797.00;;;;5074549;28;20227;-84
2022/08/24 10:23:30;;;;;;;1.85;1.33;;;30.20;56.90;31.40;96793.00;;;;5074425;28;20451;-85
2022/08/24 10:26:06;;;;;;;1.08;1.00;;;30.30;57.50;31.60;96784.00;;;;5055107;28;20189;-85
2022/08/24 10:29:21;;;;;;;1.23;1.23;;;30.30;57.10;31.70;96787.00;;;;5054236;28;20215;-85
2022/08/24 10:32:11;;;;;;;0.88;0.88;;;30.40;56.40;31.70;96789.00;;;;5054984;28;20278;-85
2022/08/24 10:35:02;;;;;;;1.10;1.00;;;30.50;56.60;31.70;96785.00;;;;5055505;28;20185;-85
2022/08/24 10:41:08;;;;;;;0.88;0.88;;;30.60;56.00;31.90;96788.00;;;;5055312;28;20302;-85
2022/08/24 10:44:11;;;;;;;1.05;1.05;;;30.70;56.00;32.10;96787.00;;;;5055719;28;20205;-85
2022/08/24 10:46:59;;;;;;;0.90;0.90;;;30.90;56.20;32.20;96786.00;;;;5054912;28;20680;-85
2022/08/24 10:50:27;;;;;;;2.45;1.02;;;31.00;55.50;32.40;96791.00;;;;5054763;28;20278;-85
2022/08/24 10:53:25;;;;;;;1.00;1.00;;;31.20;55.70;32.60;96785.00;;;;5055111;28;20622;-84
2022/08/24 10:56:13;;;;;;;1.23;1.00;;;31.40;56.10;32.70;96780.00;;;;5053849;28;20278;-83
2022/08/24 10:59:09;;;;;;;1.08;1.08;;;31.50;55.30;32.70;96781.00;;;;5060677;28;20200;-84
2022/08/24 11:02:01;;;;;;;0.85;0.85;;;31.60;54.20;32.70;96783.00;;;;5065912;28;20200;-85
2022/08/24 11:04:34;;;;;;;0.93;0.93;;;31.60;55.00;32.60;96783.00;;;;5068639;28;20196;-85
2022/08/24 11:07:16;;;;;;;0.80;0.80;;;31.70;54.40;32.60;96781.00;;;;5073921;28;20215;-85
2022/08/24 11:09:50;;;;;;;1.00;0.85;;;31.70;53.60;32.50;96777.00;;;;5073949;28;20642;-86
2022/08/24 11:12:30;;;;;;;1.55;0.90;;;31.60;53.90;32.50;96779.00;;;;5073078;28;20223;-85
2022/08/24 11:15:04;;;;;;;0.88;0.88;;;31.60;52.90;32.50;96783.00;;;;5072729;28;20200;-86
2022/08/24 11:17:39;;;;;;;0.85;0.85;;;31.60;53.50;32.50;96789.00;;;;5074448;28;20257;-86
2022/08/24 11:20:31;;;;;;;1.05;1.05;;;31.50;53.60;32.40;96793.00;;;;5073112;28;20254;-85
2022/08/24 11:23:10;;;;;;;0.93;0.93;;;31.50;52.90;32.40;96791.00;;;;5072611;28;20200;-85
2022/08/24 11:25:52;;;;;;;1.00;1.00;;;31.50;53.40;32.40;96791.00;;;;5073664;28;20204;-86
2022/08/24 11:28:35;;;;;;;1.05;0.95;;;31.40;53.60;32.30;96790.00;;;;5072625;28;20261;-84
2022/08/24 11:31:13;;;;;;;0.93;0.93;;;31.40;52.80;32.20;96786.00;;;;5072904;28;20219;-84
2022/08/24 11:33:51;;;;;;;1.00;1.00;;;31.30;53.00;32.00;96788.00;;;;5052268;28;20204;-84
2022/08/24 11:36:33;;;;;;;1.00;1.00;;;31.20;53.20;31.90;96778.00;;;;5052537;28;20200;-84
2022/08/24 11:39:17;;;;;;;1.30;1.20;;;31.10;53.10;31.80;96783.00;;;;5052633;28;20220;-84
2022/08/24 11:42:02;;;;;;;1.70;0.95;;;31.00;52.70;31.80;96782.00;;;;5053894;28;20208;-84
2022/08/24 11:44:48;;;;;;;0.90;0.90;;;31.00;52.70;31.70;96778.00;;;;5068958;28;20230;-84
2022/08/24 11:47:43;;;;;;;0.82;0.82;;;30.90;53.00;31.70;96778.00;;;;5071947;28;20200;-84
2022/08/24 11:50:35;;;;;;;1.30;1.10;;;30.80;53.40;31.70;96778.00;;;;5066654;28;20224;-84
2022/08/24 11:53:25;;;;;;;0.80;0.80;;;30.80;53.10;31.60;96779.00;;;;5072468;28;20295;-84
2022/08/24 11:56:07;;;;;;;2.05;0.90;;;30.70;53.20;31.50;96778.00;;;;5072143;28;20275;-84
2022/08/24 11:58:56;;;;;;;1.10;1.10;;;30.60;53.00;31.40;96778.00;;;;5071281;28;20610;-84